Time;durP1;ratioP1;P1;durP2;ratioP2;P2;SDS_P1;SDS_P2;PMS_P1;PMS_P2;Temp;Humidity;BMP_temperature;BMP_pressure;BME280_temperature;BME280_humidity;BME280_pressure;Samples;Min_cycle;Max_cycle;Signal;HPM_P1;HPM_P2
2022/05/16 00:01:57;;;;;;;3.00;2.40;;;;;;;;;;5056786;28;20568;-64
2022/05/16 00:04:25;;;;;;;2.93;2.67;;;;;;;;;;5064719;28;20205;-66
2022/05/16 00:06:53;;;;;;;4.53;2.50;;;;;;;;;;5053049;28;20738;-66
2022/05/16 00:09:21;;;;;;;2.57;2.37;;;;;;;;;;5036994;28;20230;-65
2022/05/16 00:11:49;;;;;;;3.27;2.63;;;;;;;;;;5042963;28;20266;-66
2022/05/16 00:14:17;;;;;;;2.60;2.40;;;;;;;;;;5045632;28;20233;-65
2022/05/16 00:16:44;;;;;;;2.83;2.30;;;;;;;;;;5048448;28;20229;-64
2022/05/16 00:19:11;;;;;;;3.83;2.30;;;;;;;;;;5046017;28;20244;-66
2022/05/16 00:21:39;;;;;;;2.50;1.90;;;;;;;;;;5041148;28;20198;-65
2022/05/16 00:24:06;;;;;;;2.20;2.00;;;;;;;;;;5041913;28;20271;-66
2022/05/16 00:26:34;;;;;;;3.17;2.10;;;;;;;;;;5053374;28;20202;-65
2022/05/16 00:29:01;;;;;;;3.23;2.90;;;;;;;;;;5060616;28;20232;-65
2022/05/16 00:31:29;;;;;;;3.63;2.47;;;;;;;;;;5037060;28;20585;-65
2022/05/16 00:33:57;;;;;;;2.90;2.00;;;;;;;;;;5063302;28;20216;-66
2022/05/16 00:36:24;;;;;;;3.07;2.77;;;;;;;;;;5050420;28;20233;-64
2022/05/16 00:38:54;;;;;;;5.50;3.60;;;;;;;;;;5031676;28;21133;-66
2022/05/16 00:41:21;;;;;;;7.37;5.60;;;;;;;;;;5033974;28;20667;-65
2022/05/16 00:43:59;;;;;;;5.40;2.40;;;;;;;;;;5038860;28;20232;-66
2022/05/16 00:46:31;;;;;;;4.70;2.27;;;;;;;;;;5037050;28;20205;-65
2022/05/16 00:48:59;;;;;;;2.20;2.07;;;;;;;;;;5058056;28;20233;-65
2022/05/16 00:51:29;;;;;;;2.87;1.80;;;;;;;;;;5043412;28;20209;-65
2022/05/16 00:53:59;;;;;;;3.50;2.10;;;;;;;;;;5053183;28;20304;-64
2022/05/16 00:56:27;;;;;;;3.07;2.07;;;;;;;;;;5060102;28;20271;-66
2022/05/16 00:58:55;;;;;;;2.53;2.27;;;;;;;;;;5054851;28;20287;-64
2022/05/16 01:06:57;;;;;;;3.13;2.10;;;;;;;;;;5056071;28;20217;-64
2022/05/16 01:09:24;;;;;;;2.10;1.90;;;;;;;;;;5035157;28;20716;-65
2022/05/16 01:11:52;;;;;;;2.33;2.10;;;;;;;;;;5045502;28;20205;-63
2022/05/16 01:14:39;;;;;;;3.53;2.13;;;;;;;;;;5045913;28;20251;-63
2022/05/16 01:17:06;;;;;;;2.83;1.90;;;;;;;;;;5059602;28;20230;-64
2022/05/16 01:19:34;;;;;;;3.47;2.00;;;;;;;;;;5061776;28;20228;-64
2022/05/16 01:22:06;;;;;;;2.63;1.85;;;;;;;;;;5062777;28;20684;-64
2022/05/16 01:24:33;;;;;;;2.00;1.90;;;;;;;;;;5060766;28;20202;-65
2022/05/16 01:27:01;;;;;;;2.38;1.80;;;;;;;;;;5059556;28;20209;-65
2022/05/16 01:29:28;;;;;;;1.90;1.80;;;;;;;;;;5039147;28;20225;-65
2022/05/16 01:31:56;;;;;;;2.13;1.77;;;;;;;;;;5046888;28;20685;-63
2022/05/16 01:34:23;;;;;;;2.38;2.03;;;;;;;;;;5046993;28;20202;-65
2022/05/16 01:36:50;;;;;;;2.70;2.28;;;;;;;;;;5040713;28;20225;-67
2022/05/16 01:39:18;;;;;;;3.72;1.98;;;;;;;;;;5042372;28;20222;-65
2022/05/16 01:41:45;;;;;;;2.37;2.17;;;;;;;;;;5045325;28;20202;-65
2022/05/16 01:44:13;;;;;;;3.13;1.90;;;;;;;;;;5041638;28;20204;-64
2022/05/16 01:46:41;;;;;;;2.47;2.23;;;;;;;;;;5046073;28;20209;-65
2022/05/16 01:49:09;;;;;;;2.97;2.10;;;;;;;;;;5048311;28;20218;-65
2022/05/16 01:51:38;;;;;;;2.20;2.00;;;;;;;;;;5045178;28;20220;-63
2022/05/16 01:54:06;;;;;;;2.20;2.00;;;;;;;;;;5058862;28;20889;-65
2022/05/16 01:56:34;;;;;;;2.80;2.00;;;;;;;;;;5058535;28;20225;-65
2022/05/16 01:59:03;;;;;;;2.22;2.03;;;;;;;;;;5058425;28;20226;-64
2022/05/16 02:01:30;;;;;;;2.60;2.40;;;;;;;;;;5070093;28;20209;-65
2022/05/16 02:03:58;;;;;;;2.60;2.10;;;;;;;;;;5065642;28;20208;-64
2022/05/16 02:06:25;;;;;;;3.72;2.42;;;;;;;;;;5057520;28;20342;-65
2022/05/16 02:08:54;;;;;;;2.63;2.20;;;;;;;;;;5044912;28;20699;-64
2022/05/16 02:11:22;;;;;;;3.30;2.23;;;;;;;;;;5052574;28;20209;-64
2022/05/16 02:13:49;;;;;;;2.55;2.35;;;;;;;;;;5061086;28;20666;-64
2022/05/16 02:16:17;;;;;;;3.17;2.80;;;;;;;;;;5048299;28;20221;-64
2022/05/16 02:18:44;;;;;;;3.42;2.20;;;;;;;;;;5038627;28;20256;-63
2022/05/16 02:26:47;;;;;;;3.10;1.97;;;;;;;;;;5059034;28;20205;-65
2022/05/16 02:29:16;;;;;;;2.50;2.30;;;;;;;;;;5051443;28;20228;-64
2022/05/16 02:31:43;;;;;;;2.67;2.47;;;;;;;;;;5046420;28;20201;-65
2022/05/16 02:34:10;;;;;;;2.50;2.30;;;;;;;;;;5059313;28;20683;-64
2022/05/16 02:36:38;;;;;;;3.95;2.28;;;;;;;;;;5055242;28;20221;-65
2022/05/16 02:39:05;;;;;;;3.83;2.40;;;;;;;;;;5056606;28;20713;-65
2022/05/16 02:41:33;;;;;;;7.40;2.77;;;;;;;;;;5055808;28;20674;-63
2022/05/16 02:44:00;;;;;;;2.55;2.35;;;;;;;;;;5053773;28;20210;-64
2022/05/16 02:46:27;;;;;;;4.07;2.70;;;;;;;;;;5065245;28;20275;-65
2022/05/16 02:48:55;;;;;;;3.43;2.37;;;;;;;;;;5066177;28;20312;-63
2022/05/16 02:51:22;;;;;;;2.70;2.27;;;;;;;;;;5060202;28;20267;-65
2022/05/16 02:53:50;;;;;;;5.78;2.78;;;;;;;;;;5058586;28;21012;-65
2022/05/16 02:56:17;;;;;;;3.60;2.63;;;;;;;;;;5060908;28;20303;-64
2022/05/16 02:58:44;;;;;;;2.75;2.45;;;;;;;;;;5057124;28;20619;-65
2022/05/16 03:01:12;;;;;;;2.70;2.50;;;;;;;;;;5053956;28;20205;-64
2022/05/16 03:03:40;;;;;;;4.57;2.40;;;;;;;;;;5052391;28;20651;-65
2022/05/16 03:06:10;;;;;;;3.40;2.38;;;;;;;;;;5057884;28;20202;-64
2022/05/16 03:08:38;;;;;;;3.57;2.47;;;;;;;;;;5040527;28;20229;-64
2022/05/16 03:11:06;;;;;;;2.78;2.20;;;;;;;;;;5044673;28;20209;-65
2022/05/16 03:13:34;;;;;;;5.47;2.40;;;;;;;;;;5053409;28;20962;-64
2022/05/16 03:16:01;;;;;;;4.22;2.55;;;;;;;;;;5050090;28;20232;-64
2022/05/16 03:18:29;;;;;;;3.47;2.30;;;;;;;;;;5040768;28;20221;-64
2022/05/16 03:20:57;;;;;;;3.08;2.30;;;;;;;;;;5043278;28;20201;-64
2022/05/16 03:23:24;;;;;;;2.70;2.50;;;;;;;;;;5040749;28;20206;-64
2022/05/16 03:25:53;;;;;;;4.37;2.30;;;;;;;;;;5037653;28;20255;-63
2022/05/16 03:28:21;;;;;;;5.05;2.60;;;;;;;;;;5037296;28;20226;-64
2022/05/16 03:30:48;;;;;;;3.83;2.63;;;;;;;;;;5042499;28;20198;-66
2022/05/16 03:33:16;;;;;;;4.63;2.30;;;;;;;;;;5039835;28;20212;-66
2022/05/16 03:35:44;;;;;;;3.28;2.30;;;;;;;;;;5044257;28;20197;-65
2022/05/16 03:40:41;;;;;;;6.45;2.40;;;;;;;;;;5042869;28;20220;-65
2022/05/16 03:40:58;;;;;;;2.75;2.40;;;;;;;;;;5055948;28;20214;-63
2022/05/16 03:43:28;;;;;;;2.70;2.40;;;;;;;;;;5039754;28;20553;-65
2022/05/16 03:45:56;;;;;;;2.95;2.60;;;;;;;;;;5063176;28;20209;-65
2022/05/16 03:48:23;;;;;;;4.18;2.78;;;;;;;;;;5041880;28;20218;-65
2022/05/16 03:50:50;;;;;;;3.63;2.63;;;;;;;;;;5046045;28;20202;-64
2022/05/16 03:53:18;;;;;;;2.65;2.45;;;;;;;;;;5042506;28;20197;-63
2022/05/16 03:55:45;;;;;;;3.78;2.55;;;;;;;;;;5055187;28;20217;-65
2022/05/16 03:58:13;;;;;;;3.40;2.70;;;;;;;;;;5039865;28;20218;-63
2022/05/16 04:00:40;;;;;;;2.60;2.40;;;;;;;;;;5036240;28;20209;-65
2022/05/16 04:03:08;;;;;;;3.03;2.70;;;;;;;;;;5043761;28;20244;-65
2022/05/16 04:05:36;;;;;;;3.97;2.90;;;;;;;;;;5049132;28;20205;-65
2022/05/16 04:08:03;;;;;;;3.30;2.30;;;;;;;;;;5045134;28;20313;-65
2022/05/16 04:10:31;;;;;;;4.20;2.30;;;;;;;;;;5032524;28;21125;-64
2022/05/16 04:12:58;;;;;;;5.97;2.78;;;;;;;;;;5048904;28;20209;-65
2022/05/16 04:15:26;;;;;;;3.15;2.88;;;;;;;;;;5053338;28;20201;-64
2022/05/16 04:17:53;;;;;;;3.90;3.37;;;;;;;;;;5043194;28;20257;-63
2022/05/16 04:20:21;;;;;;;2.80;2.60;;;;;;;;;;5045437;28;20252;-65
2022/05/16 04:22:48;;;;;;;4.95;2.28;;;;;;;;;;5029650;28;23072;-64
2022/05/16 04:25:17;;;;;;;4.38;2.58;;;;;;;;;;5046891;28;20671;-64
2022/05/16 04:27:51;;;;;;;3.78;2.38;;;;;;;;;;5032760;28;20281;-65
2022/05/16 04:30:18;;;;;;;2.65;2.38;;;;;;;;;;5041955;28;20213;-65
2022/05/16 04:32:46;;;;;;;3.67;2.55;;;;;;;;;;5055236;28;20212;-64
2022/05/16 04:35:13;;;;;;;3.35;2.60;;;;;;;;;;5053964;28;20210;-64
2022/05/16 04:37:41;;;;;;;6.70;2.80;;;;;;;;;;5037707;28;20217;-65
2022/05/16 04:40:10;;;;;;;3.35;2.35;;;;;;;;;;5041077;28;20224;-66
2022/05/16 04:42:41;;;;;;;3.75;2.78;;;;;;;;;;5065470;28;20201;-65
2022/05/16 04:45:09;;;;;;;4.97;2.50;;;;;;;;;;5055002;28;20245;-65
2022/05/16 04:47:36;;;;;;;5.47;2.67;;;;;;;;;;5061821;28;20667;-66
2022/05/16 04:50:04;;;;;;;5.28;2.90;;;;;;;;;;5040150;28;20620;-64
2022/05/16 04:52:32;;;;;;;3.60;2.47;;;;;;;;;;5050377;28;20260;-66
2022/05/16 04:55:01;;;;;;;3.58;2.80;;;;;;;;;;5040308;28;20213;-64
2022/05/16 04:57:28;;;;;;;3.88;2.45;;;;;;;;;;5038736;28;20233;-67
2022/05/16 04:59:55;;;;;;;4.50;2.70;;;;;;;;;;5043326;28;20221;-64
2022/05/16 05:02:23;;;;;;;2.85;2.63;;;;;;;;;;5063079;28;20580;-66
2022/05/16 05:04:50;;;;;;;3.22;2.60;;;;;;;;;;5059667;28;20282;-65
2022/05/16 05:07:18;;;;;;;3.63;2.40;;;;;;;;;;5057360;28;20210;-65
2022/05/16 05:15:18;;;;;;;3.60;2.50;;;;;;;;;;5061498;28;20203;-67
2022/05/16 05:17:46;;;;;;;5.40;2.60;;;;;;;;;;5041675;28;20229;-65
2022/05/16 05:20:14;;;;;;;4.80;3.08;;;;;;;;;;5060889;28;20210;-65
2022/05/16 05:22:43;;;;;;;3.75;2.42;;;;;;;;;;5038990;28;20297;-66
2022/05/16 05:25:11;;;;;;;3.17;2.72;;;;;;;;;;5043963;28;20267;-65
2022/05/16 05:27:39;;;;;;;4.38;2.70;;;;;;;;;;5042975;28;20210;-65
2022/05/16 05:30:09;;;;;;;2.67;2.47;;;;;;;;;;5044589;28;20613;-64
2022/05/16 05:32:37;;;;;;;2.35;2.20;;;;;;;;;;5042229;28;20202;-65
2022/05/16 05:35:05;;;;;;;2.83;2.58;;;;;;;;;;5061554;28;20213;-66
2022/05/16 05:37:33;;;;;;;3.17;2.58;;;;;;;;;;5040674;28;20629;-65
2022/05/16 05:40:01;;;;;;;2.92;2.67;;;;;;;;;;5040569;28;20276;-65
2022/05/16 05:42:29;;;;;;;4.97;2.55;;;;;;;;;;5044015;28;20248;-65
2022/05/16 05:44:56;;;;;;;2.70;2.50;;;;;;;;;;5039353;28;20232;-64
2022/05/16 05:47:23;;;;;;;2.58;2.38;;;;;;;;;;5066840;28;20209;-65
2022/05/16 05:49:51;;;;;;;2.50;2.30;;;;;;;;;;5046359;28;20726;-66
2022/05/16 05:52:19;;;;;;;3.47;2.60;;;;;;;;;;5041797;28;20217;-64
2022/05/16 05:54:49;;;;;;;2.17;2.08;;;;;;;;;;5060358;28;20202;-66
2022/05/16 05:57:16;;;;;;;2.50;2.30;;;;;;;;;;5038955;28;20229;-63
2022/05/16 05:59:44;;;;;;;7.28;2.42;;;;;;;;;;5046409;28;20771;-64
2022/05/16 06:02:11;;;;;;;7.55;2.50;;;;;;;;;;5061465;28;20364;-65
2022/05/16 06:04:39;;;;;;;4.15;2.45;;;;;;;;;;5056513;28;20678;-64
2022/05/16 06:07:06;;;;;;;5.65;2.42;;;;;;;;;;5058234;28;20893;-65
2022/05/16 06:09:34;;;;;;;3.63;2.45;;;;;;;;;;5060769;28;20229;-64
2022/05/16 06:12:03;;;;;;;3.22;2.92;;;;;;;;;;5050730;28;20460;-64
2022/05/16 06:14:31;;;;;;;6.20;2.45;;;;;;;;;;5061459;28;20267;-64
2022/05/16 06:16:58;;;;;;;3.70;3.28;;;;;;;;;;5055619;28;20237;-65
2022/05/16 06:19:26;;;;;;;5.13;3.00;;;;;;;;;;5059526;28;20326;-64
2022/05/16 06:21:53;;;;;;;3.42;3.13;;;;;;;;;;5048974;28;20251;-65
2022/05/16 06:27:08;;;;;;;3.85;3.17;;;;;;;;;;5065690;28;20291;-65
2022/05/16 06:29:35;;;;;;;4.32;3.03;;;;;;;;;;5045670;28;20236;-66
2022/05/16 06:32:03;;;;;;;5.50;3.53;;;;;;;;;;5044993;28;20246;-65
2022/05/16 06:34:30;;;;;;;3.58;3.22;;;;;;;;;;5040496;28;20201;-65
2022/05/16 06:36:58;;;;;;;3.78;3.03;;;;;;;;;;5048524;28;20225;-64
2022/05/16 06:39:25;;;;;;;6.18;3.30;;;;;;;;;;5045918;28;20222;-65
2022/05/16 06:41:53;;;;;;;4.85;3.50;;;;;;;;;;5040642;28;20194;-66
2022/05/16 06:44:20;;;;;;;4.40;3.22;;;;;;;;;;5061111;28;20193;-63
2022/05/16 06:46:48;;;;;;;3.45;3.13;;;;;;;;;;5038089;28;20717;-65
2022/05/16 06:49:15;;;;;;;3.80;3.47;;;;;;;;;;5040010;28;20244;-64
2022/05/16 06:51:43;;;;;;;4.13;3.72;;;;;;;;;;5044727;28;20202;-64
2022/05/16 06:54:10;;;;;;;5.28;3.80;;;;;;;;;;5049786;28;20270;-65
2022/05/16 06:56:38;;;;;;;4.65;3.53;;;;;;;;;;5044577;28;20263;-65
2022/05/16 06:59:05;;;;;;;5.50;3.70;;;;;;;;;;5042067;28;20221;-65
2022/05/16 07:01:33;;;;;;;4.05;3.50;;;;;;;;;;5055836;28;20243;-66
2022/05/16 07:04:00;;;;;;;6.38;3.63;;;;;;;;;;5049268;28;20691;-64
2022/05/16 07:06:28;;;;;;;4.35;3.70;;;;;;;;;;5049183;28;20205;-65
2022/05/16 07:08:55;;;;;;;7.15;3.33;;;;;;;;;;5056318;28;20294;-66
2022/05/16 07:11:23;;;;;;;4.78;3.80;;;;;;;;;;5038556;28;20259;-64
2022/05/16 07:13:50;;;;;;;4.07;3.38;;;;;;;;;;5042137;28;20857;-65
2022/05/16 07:16:17;;;;;;;5.30;3.42;;;;;;;;;;5061124;28;20201;-66
2022/05/16 07:18:45;;;;;;;5.43;3.25;;;;;;;;;;5058628;28;20237;-64
2022/05/16 07:21:13;;;;;;;4.70;3.30;;;;;;;;;;5041959;28;20454;-67
2022/05/16 07:23:41;;;;;;;6.50;3.30;;;;;;;;;;5042367;28;20210;-67
2022/05/16 07:28:54;;;;;;;3.97;2.80;;;;;;;;;;5058992;28;21013;-65
2022/05/16 07:31:21;;;;;;;4.00;3.00;;;;;;;;;;5034725;28;20209;-64
2022/05/16 07:33:49;;;;;;;3.60;3.30;;;;;;;;;;5038650;28;20316;-65
2022/05/16 07:36:16;;;;;;;4.32;3.25;;;;;;;;;;5050672;28;20351;-66
2022/05/16 07:38:44;;;;;;;3.40;3.10;;;;;;;;;;5052869;28;20702;-64
2022/05/16 07:41:11;;;;;;;5.03;3.17;;;;;;;;;;5036168;28;20206;-66
2022/05/16 07:43:38;;;;;;;5.18;3.53;;;;;;;;;;5052254;28;20255;-64
2022/05/16 07:46:06;;;;;;;5.45;3.83;;;;;;;;;;5035720;28;20214;-64
2022/05/16 07:48:34;;;;;;;7.40;3.45;;;;;;;;;;5045608;28;20225;-66
2022/05/16 07:51:01;;;;;;;7.72;3.60;;;;;;;;;;5037203;28;20301;-65
2022/05/16 07:53:31;;;;;;;2.97;2.72;;;;;;;;;;5034314;28;20214;-64
2022/05/16 07:55:59;;;;;;;3.30;2.97;;;;;;;;;;5051241;28;20271;-64
2022/05/16 07:58:26;;;;;;;3.22;2.92;;;;;;;;;;5050828;28;20803;-65
2022/05/16 08:00:55;;;;;;;3.28;2.90;;;;;;;;;;5056887;28;20268;-63
2022/05/16 08:03:25;;;;;;;2.95;2.75;;;;;;;;;;5034718;28;20292;-65
2022/05/16 08:05:52;;;;;;;3.05;2.38;;;;;;;;;;5035983;28;20198;-65
2022/05/16 08:11:09;;;;;;;3.28;2.65;;;;;;;;;;5052853;28;20221;-65
2022/05/16 08:13:38;;;;;;;4.50;2.58;;;;;;;;;;5043786;28;20564;-66
2022/05/16 08:16:06;;;;;;;2.50;2.30;;;;;;;;;;5038280;28;20211;-64
2022/05/16 08:18:34;;;;;;;2.53;2.30;;;;;;;;;;5037573;28;20240;-66
2022/05/16 08:21:02;;;;;;;2.63;1.98;;;;;;;;;;5044863;28;20212;-66
2022/05/16 08:23:30;;;;;;;3.53;2.20;;;;;;;;;;5059919;28;20530;-67
2022/05/16 08:26:04;;;;;;;3.28;2.60;;;;;;;;;;5042911;28;20331;-67
2022/05/16 08:28:32;;;;;;;2.42;1.90;;;;;;;;;;5043829;28;20267;-67
2022/05/16 08:31:00;;;;;;;3.80;2.25;;;;;;;;;;5043153;28;20724;-65
2022/05/16 08:33:33;;;;;;;2.20;2.00;;;;;;;;;;5058305;28;20210;-65
2022/05/16 08:41:53;;;;;;;2.55;2.38;;;;;;;;;;5056429;28;20234;-64
2022/05/16 08:44:21;;;;;;;2.88;2.60;;;;;;;;;;5038978;28;20570;-63
2022/05/16 08:47:01;;;;;;;3.25;2.95;;;;;;;;;;5038663;28;20665;-65
2022/05/16 08:49:35;;;;;;;3.72;2.60;;;;;;;;;;5041747;28;20286;-66
2022/05/16 08:52:22;;;;;;;3.67;2.95;;;;;;;;;;5061006;28;20224;-65
2022/05/16 08:54:53;;;;;;;2.70;2.50;;;;;;;;;;5044743;28;20225;-66
2022/05/16 08:57:26;;;;;;;4.05;2.78;;;;;;;;;;5056132;28;20304;-64
2022/05/16 09:00:03;;;;;;;3.03;2.70;;;;;;;;;;5049212;28;20589;-66
2022/05/16 09:02:36;;;;;;;3.10;2.80;;;;;;;;;;5039075;28;20206;-66
2022/05/16 09:05:07;;;;;;;4.30;2.70;;;;;;;;;;5043234;28;20212;-64
2022/05/16 09:07:42;;;;;;;2.95;2.75;;;;;;;;;;5058197;28;20214;-65
2022/05/16 09:10:10;;;;;;;4.32;2.97;;;;;;;;;;5040172;28;20400;-65
2022/05/16 09:12:43;;;;;;;5.88;3.22;;;;;;;;;;5046350;28;20217;-65
2022/05/16 09:15:19;;;;;;;3.58;2.80;;;;;;;;;;5043547;28;20344;-66
2022/05/16 09:17:48;;;;;;;5.38;3.40;;;;;;;;;;5043386;28;20239;-65
2022/05/16 09:20:25;;;;;;;3.42;3.08;;;;;;;;;;5061347;28;20228;-66
2022/05/16 09:23:05;;;;;;;3.25;2.95;;;;;;;;;;5058807;28;20251;-65
2022/05/16 09:25:45;;;;;;;3.55;3.22;;;;;;;;;;5041688;28;20292;-63
2022/05/16 09:31:01;;;;;;;5.13;3.30;;;;;;;;;;5059568;28;20287;-64
2022/05/16 09:33:29;;;;;;;4.45;3.30;;;;;;;;;;5061382;28;20206;-66
2022/05/16 09:35:59;;;;;;;5.22;3.40;;;;;;;;;;5058077;28;20243;-65
2022/05/16 09:38:27;;;;;;;3.83;3.10;;;;;;;;;;5045388;28;20248;-65
2022/05/16 09:41:04;;;;;;;3.40;3.10;;;;;;;;;;5071497;28;20255;-65
2022/05/16 09:43:33;;;;;;;4.75;3.20;;;;;;;;;;5049425;28;20205;-66
2022/05/16 09:46:16;;;;;;;3.30;3.00;;;;;;;;;;5040347;28;20213;-66
2022/05/16 09:48:43;;;;;;;4.03;3.50;;;;;;;;;;5038892;28;20273;-65
2022/05/16 09:51:10;;;;;;;4.75;3.83;;;;;;;;;;5046074;28;20205;-65
2022/05/16 09:53:43;;;;;;;4.63;3.47;;;;;;;;;;5062561;28;20202;-66
2022/05/16 09:56:30;;;;;;;3.60;3.13;;;;;;;;;;5043710;28;20256;-65
2022/05/16 09:59:00;;;;;;;4.72;3.65;;;;;;;;;;5048192;28;20282;-65
2022/05/16 10:01:51;;;;;;;4.15;3.35;;;;;;;;;;5049583;28;20580;-64
2022/05/16 10:04:41;;;;;;;3.78;3.00;;;;;;;;;;5051542;28;20205;-64
2022/05/16 10:07:12;;;;;;;5.70;3.47;;;;;;;;;;5059485;22;20234;-77
2022/05/16 10:09:44;;;;;;;4.10;3.40;;;;;;;;;;5106026;22;20260;-77
2022/05/16 10:12:13;;;;;;;6.20;3.42;;;;;;;;;;5055634;28;20299;-77
2022/05/16 10:14:41;;;;;;;5.60;3.30;;;;;;;;;;5057824;28;20190;-77
2022/05/16 10:17:11;;;;;;;3.33;3.03;;;;;;;;;;5055493;28;20194;-76
2022/05/16 10:19:39;;;;;;;4.60;3.58;;;;;;;;;;5036523;28;20326;-77
2022/05/16 10:22:14;;;;;;;6.63;3.50;;;;;;;;;;5019936;28;20265;-77
2022/05/16 10:24:53;;;;;;;4.18;3.35;;;;;;;;;;5022364;28;20217;-78
2022/05/16 10:27:32;;;;;;;4.97;2.92;;;;;;;;;;5031585;28;20230;-76
2022/05/16 10:30:02;;;;;;;3.22;2.92;;;;;;;;;;5026615;28;20280;-80
2022/05/16 10:35:28;;;;;;;6.53;3.92;;;;;;;;;;5021792;28;20260;-78
2022/05/16 10:37:58;;;;;;;7.70;4.22;;;;;;;;;;5019147;28;20265;-75
2022/05/16 10:40:41;;;;;;;11.57;6.13;;;;;;;;;;5033456;22;20372;-66
2022/05/16 10:43:29;;;;;;;12.85;6.15;;;;;;;;;;4974271;28;20207;-65
2022/05/16 10:46:01;;;;;;;11.35;6.40;;;;;;;;;;4971006;28;20204;-64
2022/05/16 10:48:41;;;;;;;24.00;14.25;;;;;;;;;;4970168;28;20224;-63
2022/05/16 10:51:21;;;;;;;12.32;6.90;;;;;;;;;;4972520;28;20218;-64
2022/05/16 10:54:00;;;;;;;9.48;6.28;;;;;;;;;;4967446;28;20220;-64
2022/05/16 10:56:49;;;;;;;10.05;6.25;;;;;;;;;;4959799;28;20212;-64
2022/05/16 10:59:17;;;;;;;14.90;6.90;;;;;;;;;;4962493;28;20677;-64
2022/05/16 11:01:50;;;;;;;14.02;6.53;;;;;;;;;;4983155;28;20686;-64
2022/05/16 11:04:24;;;;;;;10.45;6.38;;;;;;;;;;4966872;28;20204;-63
2022/05/16 11:07:10;;;;;;;11.80;6.82;;;;;;;;;;4964565;28;20614;-65
2022/05/16 11:09:53;;;;;;;12.05;6.93;;;;;;;;;;4961211;28;20267;-63
2022/05/16 11:12:34;;;;;;;11.32;6.85;;;;;;;;;;4967924;28;20270;-63
2022/05/16 11:15:07;;;;;;;11.38;7.30;;;;;;;;;;4989728;23;20761;-66
2022/05/16 11:17:35;;;;;;;11.10;6.88;;;;;;;;;;5003606;28;20541;-64
2022/05/16 11:20:09;;;;;;;9.35;6.65;;;;;;;;;;5003843;28;20840;-64
2022/05/16 11:22:38;;;;;;;10.57;7.40;;;;;;;;;;5007721;28;20474;-65
2022/05/16 11:25:06;;;;;;;10.52;6.32;;;;;;;;;;4998272;28;20222;-66
2022/05/16 11:27:52;;;;;;;10.00;6.38;;;;;;;;;;5016166;28;20217;-65
2022/05/16 11:30:29;;;;;;;23.63;13.63;;;;;;;;;;4988239;28;20284;-68
2022/05/16 11:33:02;;;;;;;9.05;5.18;;;;;;;;;;5012439;28;20655;-65
2022/05/16 11:35:41;;;;;;;7.83;5.70;;;;;;;;;;5011715;28;23299;-65
2022/05/16 11:38:15;;;;;;;9.53;6.47;;;;;;;;;;5000482;28;20230;-64
2022/05/16 11:41:05;;;;;;;8.67;5.70;;;;;;;;;;5022957;28;20286;-65
2022/05/16 11:43:34;;;;;;;7.03;4.37;;;;;;;;;;5019228;23;20231;-63
2022/05/16 11:46:02;;;;;;;8.13;4.70;;;;;;;;;;4983838;28;20211;-64
2022/05/16 11:48:36;;;;;;;6.17;4.30;;;;;;;;;;4999436;28;20227;-65
2022/05/16 11:51:43;;;;;;;8.13;4.20;;;;;;;;;;4991072;28;20420;-65
2022/05/16 11:54:13;;;;;;;8.48;4.05;;;;;;;;;;4999527;28;20253;-65
2022/05/16 12:02:27;;;;;;;4.93;3.63;;;;;;;;;;5003241;28;20661;-66
2022/05/16 12:05:01;;;;;;;4.55;3.58;;;;;;;;;;4991013;28;20196;-64
2022/05/16 12:07:35;;;;;;;3.20;2.80;;;;;;;;;;4991938;28;20306;-65
2022/05/16 12:10:09;;;;;;;3.65;2.78;;;;;;;;;;4989409;28;20232;-65
2022/05/16 12:12:41;;;;;;;4.68;3.00;;;;;;;;;;4991326;28;20615;-64
2022/05/16 12:15:08;;;;;;;4.97;2.50;;;;;;;;;;5038844;22;20697;-67
2022/05/16 12:17:36;;;;;;;6.65;3.47;;;;;;;;;;5023116;28;20256;-66
2022/05/16 12:20:11;;;;;;;4.82;3.20;;;;;;;;;;5019886;28;20230;-65
2022/05/16 12:22:38;;;;;;;4.97;3.10;;;;;;;;;;5031238;28;20540;-66
2022/05/16 12:25:14;;;;;;;3.50;3.17;;;;;;;;;;5021580;28;20209;-65
2022/05/16 12:27:46;;;;;;;4.43;3.35;;;;;;;;;;5016606;28;20208;-65
2022/05/16 12:30:15;;;;;;;3.75;3.40;;;;;;;;;;5043994;28;20213;-65
2022/05/16 12:32:46;;;;;;;7.05;3.13;;;;;;;;;;5014488;28;20308;-66
2022/05/16 12:35:13;;;;;;;6.32;2.50;;;;;;;;;;5047006;28;20206;-65
2022/05/16 12:37:41;;;;;;;5.28;3.67;;;;;;;;;;5024048;28;20211;-65
2022/05/16 12:40:18;;;;;;;4.53;2.88;;;;;;;;;;5025870;28;20231;-66
2022/05/16 12:42:50;;;;;;;7.22;3.22;;;;;;;;;;5013367;28;20477;-65
2022/05/16 12:45:27;;;;;;;4.20;2.80;;;;;;;;;;5028122;28;20211;-65
2022/05/16 12:48:08;;;;;;;7.13;3.35;;;;;;;;;;5034347;28;20202;-65
2022/05/16 12:50:54;;;;;;;6.53;4.40;;;;;;;;;;5020718;28;20224;-65
2022/05/16 12:53:45;;;;;;;5.63;3.22;;;;;;;;;;5014416;28;20194;-65
2022/05/16 12:56:31;;;;;;;3.00;2.45;;;;;;;;;;5019300;28;20213;-65
2022/05/16 12:59:03;;;;;;;2.78;2.40;;;;;;;;;;5022278;28;20761;-65
2022/05/16 13:01:42;;;;;;;4.07;2.33;;;;;;;;;;5022448;28;20198;-64
2022/05/16 13:04:29;;;;;;;2.40;2.20;;;;;;;;;;5017946;28;20206;-64
2022/05/16 13:07:05;;;;;;;8.65;6.00;;;;;;;;;;5035525;28;20207;-65
2022/05/16 13:09:41;;;;;;;3.20;2.38;;;;;;;;;;5036577;28;20257;-65
2022/05/16 13:12:12;;;;;;;6.47;2.78;;;;;;;;;;5028995;28;20668;-67
2022/05/16 13:14:58;;;;;;;4.30;2.30;;;;;;;;;;5029976;28;20221;-66
2022/05/16 13:17:35;;;;;;;3.38;2.40;;;;;;;;;;5028846;28;20259;-66
2022/05/16 13:20:06;;;;;;;6.35;2.40;;;;;;;;;;5020604;28;20467;-66
2022/05/16 13:22:34;;;;;;;3.55;2.55;;;;;;;;;;5027316;28;20229;-65
2022/05/16 13:25:02;;;;;;;6.90;2.67;;;;;;;;;;5028458;28;20219;-66
2022/05/16 13:30:17;;;;;;;4.30;3.08;;;;;;;;;;5046213;28;20737;-66
2022/05/16 13:32:49;;;;;;;6.40;2.80;;;;;;;;;;5029372;28;20264;-65
2022/05/16 13:35:28;;;;;;;3.05;2.08;;;;;;;;;;5028706;28;20581;-66
2022/05/16 13:37:56;;;;;;;4.22;2.30;;;;;;;;;;5028595;28;20566;-66
2022/05/16 13:40:30;;;;;;;3.20;2.22;;;;;;;;;;5020401;28;20226;-66
2022/05/16 13:42:57;;;;;;;4.40;2.42;;;;;;;;;;5020462;28;20576;-66
2022/05/16 13:45:31;;;;;;;4.55;2.83;;;;;;;;;;5031199;28;20289;-66
2022/05/16 13:48:04;;;;;;;3.90;2.42;;;;;;;;;;5023097;28;20210;-67
2022/05/16 13:50:32;;;;;;;5.72;2.90;;;;;;;;;;5024908;28;20210;-66
2022/05/16 13:53:00;;;;;;;4.40;2.63;;;;;;;;;;5046470;28;20214;-65
2022/05/16 13:55:30;;;;;;;4.50;2.83;;;;;;;;;;5027840;28;20309;-66
2022/05/16 13:58:02;;;;;;;3.08;2.78;;;;;;;;;;5042953;28;20579;-66
2022/05/16 14:00:29;;;;;;;6.25;3.38;;;;;;;;;;5028047;28;20234;-66
2022/05/16 14:02:58;;;;;;;4.13;3.00;;;;;;;;;;5041900;28;20202;-65
2022/05/16 14:05:55;;;;;;;5.10;2.90;;;;;;;;;;5029516;28;20523;-65
2022/05/16 14:08:23;;;;;;;5.68;2.67;;;;;;;;;;5025167;28;20222;-67
2022/05/16 14:10:51;;;;;;;4.93;3.38;;;;;;;;;;5032296;28;20252;-67
2022/05/16 14:13:21;;;;;;;7.10;3.10;;;;;;;;;;5020173;28;20206;-67
2022/05/16 14:15:51;;;;;;;5.88;2.95;;;;;;;;;;5029116;28;20209;-67
2022/05/16 14:18:24;;;;;;;5.57;3.08;;;;;;;;;;5022539;28;20949;-67
2022/05/16 14:20:57;;;;;;;4.82;3.08;;;;;;;;;;5014526;28;20755;-66
2022/05/16 14:23:24;;;;;;;4.05;2.72;;;;;;;;;;5020415;28;20199;-67
2022/05/16 14:25:52;;;;;;;5.85;2.70;;;;;;;;;;5024587;28;20260;-66
2022/05/16 14:28:23;;;;;;;2.95;2.25;;;;;;;;;;5024223;28;20626;-67
2022/05/16 14:31:00;;;;;;;5.18;3.10;;;;;;;;;;5025939;28;20210;-67
2022/05/16 14:33:30;;;;;;;5.30;2.80;;;;;;;;;;5042549;28;20570;-67
2022/05/16 14:36:00;;;;;;;3.70;2.70;;;;;;;;;;5012584;28;20221;-66
2022/05/16 14:38:29;;;;;;;3.72;3.00;;;;;;;;;;5012993;28;20226;-67
2022/05/16 14:41:05;;;;;;;2.65;2.42;;;;;;;;;;5031269;28;20198;-67
2022/05/16 14:43:37;;;;;;;3.72;2.30;;;;;;;;;;5019796;28;20218;-67
2022/05/16 14:48:51;;;;;;;6.65;2.20;;;;;;;;;;5025094;28;20816;-66
2022/05/16 14:51:21;;;;;;;2.53;2.15;;;;;;;;;;5015888;28;20203;-65
2022/05/16 14:53:49;;;;;;;5.05;2.20;;;;;;;;;;5018286;28;20206;-65
2022/05/16 14:56:17;;;;;;;4.82;2.95;;;;;;;;;;5023475;28;20211;-66
2022/05/16 14:58:44;;;;;;;4.05;2.30;;;;;;;;;;5022264;28;20258;-65
2022/05/16 15:04:04;;;;;;;5.93;3.03;;;;;;;;;;5036977;28;20202;-65
2022/05/16 15:06:42;;;;;;;3.78;2.50;;;;;;;;;;5018906;28;20202;-66
2022/05/16 15:09:12;;;;;;;2.78;2.20;;;;;;;;;;5019392;28;20683;-65
2022/05/16 15:11:43;;;;;;;7.47;4.15;;;;;;;;;;5018423;28;20210;-65
2022/05/16 15:14:11;;;;;;;6.10;3.47;;;;;;;;;;5014832;28;20222;-66
2022/05/16 15:16:39;;;;;;;7.18;3.08;;;;;;;;;;5015093;28;20210;-66
2022/05/16 15:19:09;;;;;;;7.22;3.95;;;;;;;;;;5019871;28;20230;-65
2022/05/16 15:21:41;;;;;;;4.18;2.28;;;;;;;;;;5018533;28;20206;-65
2022/05/16 15:24:11;;;;;;;4.13;2.47;;;;;;;;;;5018965;28;20230;-66
2022/05/16 15:26:58;;;;;;;3.35;2.40;;;;;;;;;;5023387;28;20209;-64
2022/05/16 15:29:26;;;;;;;2.47;1.90;;;;;;;;;;5013416;28;22784;-65
2022/05/16 15:31:54;;;;;;;3.92;2.28;;;;;;;;;;5021800;28;20202;-65
2022/05/16 15:34:21;;;;;;;3.83;2.20;;;;;;;;;;5018025;28;20202;-66
2022/05/16 15:36:48;;;;;;;4.55;2.67;;;;;;;;;;5017362;28;20206;-64
2022/05/16 15:39:23;;;;;;;5.15;2.72;;;;;;;;;;5020277;28;20268;-66
2022/05/16 15:41:50;;;;;;;4.60;2.08;;;;;;;;;;5018112;28;20632;-63
2022/05/16 15:44:22;;;;;;;4.82;3.00;;;;;;;;;;5019542;28;20230;-65
2022/05/16 15:46:50;;;;;;;2.47;1.65;;;;;;;;;;5019514;28;20260;-64
2022/05/16 15:49:18;;;;;;;4.38;3.03;;;;;;;;;;5021772;28;20234;-65
2022/05/16 15:51:46;;;;;;;5.50;2.35;;;;;;;;;;5018120;28;20198;-64
2022/05/16 15:54:13;;;;;;;2.92;2.00;;;;;;;;;;5015618;28;20218;-66